createdAt,value
2022-09-15T00:01:22.717Z,2.23
2022-09-15T00:03:51.528Z,2.70
2022-09-15T00:06:20.135Z,2.23
2022-09-15T00:08:48.093Z,2.37
2022-09-15T00:11:19.150Z,2.50
2022-09-15T00:13:47.896Z,2.30
2022-09-15T00:16:17.167Z,2.73
2022-09-15T00:18:47.464Z,2.40
2022-09-15T00:21:18.757Z,2.87
2022-09-15T00:23:47.847Z,2.50
2022-09-15T00:26:19.088Z,2.60
2022-09-15T00:28:47.653Z,2.03
2022-09-15T00:31:17.915Z,2.73
2022-09-15T00:33:49.805Z,2.30
2022-09-15T00:36:18.475Z,2.50
2022-09-15T00:38:46.786Z,2.30
2022-09-15T00:41:17.705Z,2.60
2022-09-15T00:43:48.908Z,2.63
2022-09-15T00:46:18.327Z,2.50
2022-09-15T00:48:56.968Z,2.67
2022-09-15T00:51:34.846Z,2.43
2022-09-15T00:54:07.033Z,2.60
2022-09-15T00:56:37.681Z,2.53
2022-09-15T00:59:10.248Z,2.60
2022-09-15T01:01:38.348Z,2.77
2022-09-15T01:04:07.773Z,2.80
2022-09-15T01:06:38.007Z,2.40
2022-09-15T01:09:11.692Z,2.60
2022-09-15T01:11:41.018Z,2.93
2022-09-15T01:14:09.292Z,2.60
2022-09-15T01:16:53.544Z,2.20
2022-09-15T01:20:05.603Z,3.27
2022-09-15T01:22:38.841Z,2.70
2022-09-15T01:25:19.881Z,2.90
2022-09-15T01:28:25.538Z,2.80
2022-09-15T01:31:01.780Z,2.63
2022-09-15T01:33:35.345Z,2.80
2022-09-15T01:36:10.258Z,2.30
2022-09-15T01:38:53.972Z,2.77
2022-09-15T01:41:28.067Z,2.53
2022-09-15T01:44:01.078Z,2.53
2022-09-15T01:46:34.093Z,2.73
2022-09-15T01:49:03.236Z,2.87
2022-09-15T01:51:32.706Z,2.67
2022-09-15T01:54:03.392Z,2.50
2022-09-15T01:56:31.397Z,2.73
2022-09-15T01:58:59.758Z,3.00
2022-09-15T02:01:33.683Z,2.17
2022-09-15T02:04:06.977Z,2.63
2022-09-15T02:06:40.775Z,2.23
2022-09-15T02:09:13.975Z,2.63
2022-09-15T02:11:53.096Z,2.10
2022-09-15T02:14:36.797Z,1.83
2022-09-15T02:17:06.386Z,2.13
2022-09-15T02:19:41.107Z,2.43
2022-09-15T02:22:13.266Z,2.20
2022-09-15T02:24:45.389Z,2.30
2022-09-15T02:27:18.590Z,2.17
2022-09-15T02:29:48.756Z,1.57
2022-09-15T02:32:20.403Z,2.27
2022-09-15T02:34:52.502Z,2.60
2022-09-15T02:37:22.199Z,2.40
2022-09-15T02:39:56.148Z,2.33
2022-09-15T02:42:25.562Z,2.53
2022-09-15T02:44:54.186Z,3.03
2022-09-15T02:47:24.171Z,2.60
2022-09-15T02:49:52.240Z,2.10
2022-09-15T02:52:20.132Z,2.97
2022-09-15T02:54:48.380Z,2.60
2022-09-15T02:57:16.744Z,3.23
2022-09-15T03:00:02.224Z,3.00
2022-09-15T03:02:32.515Z,3.23
2022-09-15T03:05:00.651Z,3.33
2022-09-15T03:07:30.368Z,2.60
2022-09-15T03:09:58.602Z,3.00
2022-09-15T03:12:26.771Z,3.00
2022-09-15T03:14:54.727Z,3.23
2022-09-15T03:17:23.038Z,3.13
2022-09-15T03:19:52.576Z,3.10
2022-09-15T03:22:20.625Z,3.00
2022-09-15T03:24:48.570Z,3.17
2022-09-15T03:27:16.534Z,3.07
2022-09-15T03:29:45.038Z,2.83
2022-09-15T03:32:12.996Z,3.67
2022-09-15T03:34:41.470Z,2.77
2022-09-15T03:37:11.948Z,2.60
2022-09-15T03:39:40.440Z,2.67
2022-09-15T03:42:08.704Z,2.40
2022-09-15T03:44:36.966Z,2.13
2022-09-15T03:47:05.419Z,2.37
2022-09-15T03:49:33.408Z,2.50
2022-09-15T03:52:01.393Z,2.17
2022-09-15T03:54:30.864Z,2.33
2022-09-15T03:56:58.950Z,2.00
2022-09-15T03:59:26.935Z,2.40
2022-09-15T04:01:54.925Z,2.10
2022-09-15T04:04:22.962Z,2.20
2022-09-15T04:06:50.961Z,1.80
2022-09-15T04:09:20.481Z,2.83
2022-09-15T04:11:49.876Z,1.90
2022-09-15T04:14:17.795Z,2.13
2022-09-15T04:16:45.822Z,2.30
2022-09-15T04:19:14.104Z,2.00
2022-09-15T04:21:42.349Z,1.90
2022-09-15T04:24:10.299Z,2.20
2022-09-15T04:26:38.686Z,1.97
2022-09-15T04:29:14.105Z,1.90
2022-09-15T04:31:42.460Z,2.00
2022-09-15T04:34:10.495Z,2.10
2022-09-15T04:36:38.629Z,2.80
2022-09-15T04:39:07.121Z,1.73
2022-09-15T04:41:35.298Z,2.00
2022-09-15T04:44:03.639Z,3.10
2022-09-15T04:46:33.211Z,2.37
2022-09-15T04:49:01.347Z,2.60
2022-09-15T04:51:29.237Z,2.27
2022-09-15T04:53:57.251Z,2.47
2022-09-15T04:56:26.628Z,2.30
2022-09-15T04:59:02.468Z,2.00
2022-09-15T05:01:35.404Z,2.10
2022-09-15T05:04:05.313Z,2.70
2022-09-15T05:06:34.894Z,2.73
2022-09-15T05:09:09.077Z,2.67
2022-09-15T05:11:38.485Z,2.23
2022-09-15T05:14:06.665Z,1.93
2022-09-15T05:16:36.306Z,2.60
2022-09-15T05:19:04.759Z,2.67
2022-09-15T05:21:33.012Z,2.10
2022-09-15T05:24:00.965Z,2.43
2022-09-15T05:26:30.552Z,2.10
2022-09-15T05:28:58.777Z,1.80
2022-09-15T05:31:28.667Z,1.60
2022-09-15T05:33:58.662Z,2.40
2022-09-15T05:36:26.704Z,2.50
2022-09-15T05:38:56.559Z,2.50
2022-09-15T05:41:25.837Z,2.47
2022-09-15T05:43:56.878Z,1.73
2022-09-15T05:46:26.539Z,2.07
2022-09-15T05:48:56.480Z,2.30
2022-09-15T05:51:26.495Z,2.47
2022-09-15T05:53:58.886Z,1.70
2022-09-15T05:56:26.958Z,2.40
2022-09-15T05:58:55.235Z,2.37
2022-09-15T06:01:26.009Z,2.10
2022-09-15T06:03:56.014Z,2.93
2022-09-15T06:06:27.059Z,2.70
2022-09-15T06:08:58.843Z,2.27
2022-09-15T06:11:29.513Z,2.50
2022-09-15T06:14:00.164Z,2.97
2022-09-15T06:16:28.601Z,2.63
2022-09-15T06:18:56.708Z,2.90
2022-09-15T06:21:28.653Z,3.00
2022-09-15T06:23:58.995Z,2.40
2022-09-15T06:26:28.315Z,2.47
2022-09-15T06:28:57.696Z,2.47
2022-09-15T06:31:27.456Z,2.90
2022-09-15T06:33:57.739Z,2.60
2022-09-15T06:36:28.702Z,2.50
2022-09-15T06:38:58.767Z,2.80
2022-09-15T06:41:35.344Z,2.20
2022-09-15T06:44:15.670Z,2.60
2022-09-15T06:46:43.803Z,3.33
2022-09-15T06:49:12.027Z,2.40
2022-09-15T06:51:42.138Z,2.60
2022-09-15T06:54:12.187Z,3.30
2022-09-15T06:56:40.293Z,2.53
2022-09-15T06:59:10.148Z,2.73
2022-09-15T07:01:38.255Z,3.07
2022-09-15T07:04:10.013Z,2.93
2022-09-15T07:06:39.616Z,2.67
2022-09-15T07:09:09.397Z,3.43
2022-09-15T07:11:37.514Z,2.57
2022-09-15T07:14:05.761Z,1.60
2022-09-15T07:16:34.350Z,0.90
2022-09-15T07:19:06.002Z,1.80
2022-09-15T07:21:35.669Z,1.10
2022-09-15T07:24:07.253Z,1.20
2022-09-15T07:26:37.058Z,0.90
2022-09-15T07:29:07.092Z,1.50
2022-09-15T07:31:37.167Z,1.00
2022-09-15T07:34:05.650Z,0.90
2022-09-15T07:36:33.789Z,1.30
2022-09-15T07:39:01.824Z,1.10
2022-09-15T07:41:31.750Z,1.00
2022-09-15T07:44:02.169Z,0.80
2022-09-15T07:46:32.707Z,0.73
2022-09-15T07:49:03.049Z,0.90
2022-09-15T07:51:31.338Z,1.00
2022-09-15T07:53:59.717Z,1.00
2022-09-15T07:56:27.763Z,1.07
2022-09-15T07:58:55.863Z,1.00
2022-09-15T08:01:25.293Z,0.90
2022-09-15T08:03:53.990Z,1.97
2022-09-15T08:06:24.551Z,0.80
2022-09-15T08:08:56.522Z,0.90
2022-09-15T08:11:27.855Z,1.00
2022-09-15T08:13:55.835Z,1.10
2022-09-15T08:16:25.798Z,1.30
2022-09-15T08:18:55.371Z,1.40
2022-09-15T08:21:24.245Z,1.03
2022-09-15T08:23:53.648Z,0.80
2022-09-15T08:26:21.679Z,0.90
2022-09-15T08:28:49.969Z,0.93
2022-09-15T08:31:24.420Z,0.80
2022-09-15T08:33:55.990Z,0.70
2022-09-15T08:36:27.749Z,1.10
2022-09-15T08:38:56.165Z,1.10
2022-09-15T08:41:26.503Z,0.90
2022-09-15T08:43:59.508Z,0.80
2022-09-15T08:46:33.796Z,0.73
2022-09-15T08:49:09.471Z,0.73
2022-09-15T08:51:44.384Z,0.70
2022-09-15T08:54:19.859Z,0.70
2022-09-15T08:56:49.242Z,1.10
2022-09-15T08:59:19.414Z,1.17
2022-09-15T09:02:02.031Z,0.97
2022-09-15T09:04:49.643Z,1.00
2022-09-15T09:07:34.197Z,1.17
2022-09-15T09:10:13.644Z,1.10
2022-09-15T09:12:51.544Z,1.20
2022-09-15T09:15:40.130Z,0.90
2022-09-15T09:18:36.611Z,0.90
2022-09-15T09:21:15.294Z,1.20
2022-09-15T09:23:48.511Z,0.80
2022-09-15T09:26:17.841Z,1.10
2022-09-15T09:28:51.379Z,1.10
2022-09-15T09:31:22.245Z,0.90
2022-09-15T09:33:54.912Z,1.20
2022-09-15T09:36:24.513Z,1.20
2022-09-15T09:38:52.870Z,1.00
2022-09-15T09:41:25.562Z,1.23
2022-09-15T09:43:55.506Z,1.50
2022-09-15T09:46:23.564Z,1.60
2022-09-15T09:48:56.394Z,1.03
2022-09-15T09:51:34.366Z,1.00
2022-09-15T09:54:07.834Z,1.53
2022-09-15T09:56:35.735Z,1.03
2022-09-15T09:59:04.043Z,1.17
2022-09-15T10:01:32.279Z,0.90
2022-09-15T10:04:17.708Z,1.50
2022-09-15T10:06:47.771Z,1.97
2022-09-15T10:09:18.203Z,1.27
2022-09-15T10:11:48.538Z,1.03
2022-09-15T10:14:23.005Z,1.00
2022-09-15T10:17:02.834Z,1.00
2022-09-15T10:19:33.214Z,1.10
2022-09-15T10:22:04.485Z,1.50
2022-09-15T10:24:39.907Z,1.13
2022-09-15T10:27:26.770Z,1.40
2022-09-15T10:29:56.087Z,1.10
2022-09-15T10:32:27.876Z,1.37
2022-09-15T10:35:01.528Z,1.30
2022-09-15T10:37:36.040Z,0.90
2022-09-15T10:40:23.072Z,1.23
2022-09-15T10:42:54.097Z,1.50
2022-09-15T10:45:27.791Z,1.43
2022-09-15T10:48:25.564Z,1.20
2022-09-15T10:51:00.245Z,1.87
2022-09-15T10:53:49.360Z,1.20
2022-09-15T10:56:26.376Z,1.50
2022-09-15T10:59:03.954Z,1.60
2022-09-15T11:01:51.496Z,1.50
2022-09-15T11:04:35.132Z,1.40
2022-09-15T11:07:10.557Z,1.67
2022-09-15T11:09:44.166Z,1.60
2022-09-15T11:12:29.420Z,1.63
2022-09-15T11:15:17.176Z,1.80
2022-09-15T11:18:01.070Z,2.37
2022-09-15T11:20:40.677Z,2.30
2022-09-15T11:23:16.066Z,2.40
2022-09-15T11:25:48.732Z,2.73
2022-09-15T11:28:21.238Z,3.00
2022-09-15T11:30:55.431Z,2.40
2022-09-15T11:33:28.682Z,2.33
2022-09-15T11:36:03.610Z,3.00
2022-09-15T11:38:47.997Z,2.73
2022-09-15T11:41:23.193Z,2.50
2022-09-15T11:44:08.288Z,2.90
2022-09-15T11:47:05.073Z,2.60
2022-09-15T11:49:39.933Z,2.70
2022-09-15T11:52:18.885Z,3.00
2022-09-15T11:54:51.910Z,2.90
2022-09-15T11:57:26.818Z,3.00
2022-09-15T11:59:59.048Z,2.90
2022-09-15T12:02:32.244Z,3.70
2022-09-15T12:05:12.128Z,2.80
2022-09-15T12:07:47.648Z,2.90
2022-09-15T12:10:20.121Z,2.37
2022-09-15T12:12:51.620Z,2.13
2022-09-15T12:15:27.204Z,2.60
2022-09-15T12:18:27.386Z,1.97
2022-09-15T12:21:03.030Z,2.20
2022-09-15T12:23:35.307Z,1.80
2022-09-15T12:26:14.778Z,2.50
2022-09-15T12:28:54.996Z,2.47
2022-09-15T12:31:33.192Z,2.30
2022-09-15T12:34:03.637Z,1.90
2022-09-15T12:36:45.833Z,2.63
2022-09-15T12:39:31.433Z,2.07
2022-09-15T12:42:12.255Z,2.40
2022-09-15T12:44:45.738Z,2.00
2022-09-15T12:47:29.542Z,2.43
2022-09-15T12:50:01.653Z,2.63
2022-09-15T12:52:33.228Z,2.20
2022-09-15T12:55:04.674Z,2.20
2022-09-15T12:57:35.511Z,2.77
2022-09-15T13:00:45.561Z,2.23
2022-09-15T13:03:50.866Z,2.47
2022-09-15T13:06:22.880Z,3.87
2022-09-15T13:08:56.271Z,3.30
2022-09-15T13:11:38.336Z,3.80
2022-09-15T13:14:17.781Z,3.10
2022-09-15T13:16:51.941Z,3.50
2022-09-15T13:19:23.972Z,2.90
2022-09-15T13:22:00.081Z,3.33
2022-09-15T13:24:38.847Z,3.10
2022-09-15T13:27:08.465Z,3.17
2022-09-15T13:29:44.672Z,3.40
2022-09-15T13:32:24.484Z,3.40
2022-09-15T13:35:21.420Z,2.90
2022-09-15T13:38:25.173Z,2.97
2022-09-15T13:41:28.423Z,2.53
2022-09-15T13:44:17.913Z,2.80
2022-09-15T13:46:58.904Z,2.50
2022-09-15T13:49:47.271Z,2.40
2022-09-15T13:52:28.173Z,3.00
2022-09-15T13:55:16.776Z,2.43
2022-09-15T14:00:44.504Z,1.77
2022-09-15T14:03:17.548Z,4.60
2022-09-15T14:05:46.698Z,1.90
2022-09-15T14:08:18.375Z,2.70
2022-09-15T14:10:51.988Z,1.63
2022-09-15T14:13:23.385Z,1.97
2022-09-15T14:15:59.430Z,2.27
2022-09-15T14:18:27.768Z,2.60
2022-09-15T14:21:00.769Z,2.07
2022-09-15T14:23:29.473Z,2.00
2022-09-15T14:26:01.422Z,1.87
2022-09-15T14:28:33.163Z,1.70
2022-09-15T14:31:01.810Z,2.13
2022-09-15T14:33:37.911Z,1.90
2022-09-15T14:36:14.679Z,2.67
2022-09-15T14:38:42.725Z,1.80
2022-09-15T14:41:20.236Z,2.13
2022-09-15T14:43:48.166Z,2.70
2022-09-15T14:46:18.602Z,4.00
2022-09-15T14:48:46.677Z,2.30
2022-09-15T14:51:22.654Z,2.40
2022-09-15T14:53:57.243Z,2.33
2022-09-15T14:56:31.379Z,2.20
2022-09-15T14:59:05.624Z,2.40
2022-09-15T15:01:38.799Z,2.30
2022-09-15T15:04:20.083Z,2.00
2022-09-15T15:06:55.371Z,2.47
2022-09-15T15:09:28.438Z,2.20
2022-09-15T15:12:01.983Z,2.87
2022-09-15T15:14:30.605Z,2.00
2022-09-15T15:17:00.994Z,2.43
2022-09-15T15:19:38.105Z,2.00
2022-09-15T15:22:17.714Z,2.23
2022-09-15T15:24:48.353Z,2.47
2022-09-15T15:27:40.797Z,2.20
2022-09-15T15:30:35.751Z,2.20
2022-09-15T15:33:05.725Z,2.87
2022-09-15T15:35:36.314Z,2.83
2022-09-15T15:38:08.486Z,1.93
2022-09-15T15:40:39.221Z,2.10
2022-09-15T15:43:22.569Z,2.30
2022-09-15T15:45:57.830Z,2.10
2022-09-15T15:48:34.007Z,2.23
2022-09-15T15:51:05.634Z,2.13
2022-09-15T15:53:34.372Z,2.00
2022-09-15T15:56:03.047Z,2.17
2022-09-15T15:58:32.418Z,1.70
2022-09-15T16:01:00.548Z,2.43
2022-09-15T16:03:28.711Z,2.70
2022-09-15T16:05:59.801Z,2.33
2022-09-15T16:08:32.107Z,2.03
2022-09-15T16:11:01.666Z,2.20
2022-09-15T16:13:30.091Z,2.23
2022-09-15T16:16:01.246Z,2.33
2022-09-15T16:18:29.774Z,1.80
2022-09-15T16:20:57.829Z,2.33
2022-09-15T16:23:25.812Z,2.27
2022-09-15T16:25:57.693Z,2.27
2022-09-15T16:28:25.609Z,2.97
2022-09-15T16:30:53.528Z,2.60
2022-09-15T16:33:22.921Z,2.50
2022-09-15T16:35:55.168Z,2.27
2022-09-15T16:38:25.914Z,2.87
2022-09-15T16:40:54.035Z,2.60
2022-09-15T16:43:23.369Z,2.90
2022-09-15T16:45:52.031Z,3.17
2022-09-15T16:48:20.347Z,2.93
2022-09-15T16:51:09.057Z,2.70
2022-09-15T16:53:39.434Z,3.40
2022-09-15T16:56:08.385Z,3.00
2022-09-15T16:58:36.323Z,2.97
2022-09-15T17:01:04.680Z,2.97
2022-09-15T17:03:32.765Z,2.67
2022-09-15T17:06:03.057Z,2.70
2022-09-15T17:08:32.953Z,2.90
2022-09-15T17:11:03.228Z,3.57
2022-09-15T17:13:33.704Z,3.60
2022-09-15T17:16:02.503Z,2.90
2022-09-15T17:18:31.206Z,3.00
2022-09-15T17:20:59.501Z,2.83
2022-09-15T17:23:32.458Z,2.70
2022-09-15T17:26:05.680Z,2.97
2022-09-15T17:28:36.623Z,2.87
2022-09-15T17:31:07.166Z,2.40
2022-09-15T17:33:35.202Z,3.43
2022-09-15T17:36:03.788Z,3.17
2022-09-15T17:38:33.071Z,4.03
2022-09-15T17:41:07.671Z,3.60
2022-09-15T17:43:35.996Z,3.17
2022-09-15T17:46:03.982Z,2.90
2022-09-15T17:48:31.970Z,2.90
2022-09-15T17:51:01.546Z,3.53
2022-09-15T17:53:30.895Z,2.70
2022-09-15T17:56:00.386Z,3.00
2022-09-15T17:58:31.316Z,3.20
2022-09-15T18:01:00.376Z,3.20
2022-09-15T18:03:30.826Z,3.90
2022-09-15T18:06:00.560Z,3.80
2022-09-15T18:08:29.092Z,3.63
2022-09-15T18:10:57.079Z,3.93
2022-09-15T18:13:27.607Z,3.30
2022-09-15T18:15:56.108Z,3.03
2022-09-15T18:18:26.251Z,4.23
2022-09-15T18:20:56.776Z,3.70
2022-09-15T18:23:26.371Z,3.50
2022-09-15T18:25:54.338Z,3.50
2022-09-15T18:28:22.278Z,3.10
2022-09-15T18:30:52.163Z,3.30
2022-09-15T18:33:22.014Z,3.37
2022-09-15T18:35:52.113Z,3.50
2022-09-15T18:38:20.396Z,4.10
2022-09-15T18:40:49.766Z,3.70
2022-09-15T18:43:17.869Z,3.20
2022-09-15T18:45:46.126Z,3.30
2022-09-15T18:48:15.416Z,3.73
2022-09-15T18:50:45.571Z,3.27
2022-09-15T18:53:14.358Z,4.00
2022-09-15T18:55:43.772Z,3.47
2022-09-15T18:58:12.744Z,3.90
2022-09-15T19:00:41.042Z,3.90
2022-09-15T19:03:10.120Z,3.70
2022-09-15T19:05:40.057Z,3.60
2022-09-15T19:08:09.408Z,4.20
2022-09-15T19:10:39.433Z,4.73
2022-09-15T19:13:07.720Z,5.10
2022-09-15T19:15:35.885Z,4.30
2022-09-15T19:18:03.927Z,4.20
2022-09-15T19:20:32.288Z,4.03
2022-09-15T19:23:01.598Z,3.90
2022-09-15T19:25:29.576Z,4.00
2022-09-15T19:27:57.526Z,4.50
2022-09-15T19:30:25.609Z,4.30
2022-09-15T19:32:54.030Z,4.00
2022-09-15T19:35:23.020Z,4.60
2022-09-15T19:37:51.031Z,4.03
2022-09-15T19:40:20.739Z,3.57
2022-09-15T19:42:50.671Z,4.30
2022-09-15T19:45:18.747Z,3.80
2022-09-15T19:47:46.753Z,4.57
2022-09-15T19:50:14.749Z,4.27
2022-09-15T19:52:42.773Z,4.23
2022-09-15T19:55:12.039Z,3.80
2022-09-15T19:57:42.607Z,4.90
2022-09-15T20:00:13.166Z,5.20
2022-09-15T20:02:41.145Z,4.67
2022-09-15T20:05:09.831Z,4.40
2022-09-15T20:07:38.050Z,4.03
2022-09-15T20:10:07.377Z,4.07
2022-09-15T20:12:35.368Z,4.70
2022-09-15T20:15:05.209Z,4.93
2022-09-15T20:17:33.199Z,4.17
2022-09-15T20:20:08.734Z,4.33
2022-09-15T20:22:36.695Z,4.30
2022-09-15T20:25:05.205Z,3.90
2022-09-15T20:27:33.226Z,3.80
2022-09-15T20:30:01.156Z,4.17
2022-09-15T20:32:33.265Z,3.70
2022-09-15T20:35:01.324Z,4.03
2022-09-15T20:37:30.568Z,4.67
2022-09-15T20:40:00.216Z,4.10
2022-09-15T20:42:28.301Z,4.70
2022-09-15T20:44:56.245Z,4.83
2022-09-15T20:47:24.227Z,4.00
2022-09-15T20:49:53.668Z,3.93
2022-09-15T20:52:21.677Z,4.77
2022-09-15T20:54:49.668Z,4.70
2022-09-15T20:57:17.614Z,3.93
2022-09-15T20:59:45.716Z,4.40
2022-09-15T21:02:13.793Z,4.90
2022-09-15T21:04:42.241Z,4.40
2022-09-15T21:07:11.559Z,4.13
2022-09-15T21:09:39.506Z,4.83
2022-09-15T21:12:08.046Z,5.00
2022-09-15T21:14:36.055Z,4.80
2022-09-15T21:17:04.004Z,5.07
2022-09-15T21:19:32.051Z,4.20
2022-09-15T21:21:59.991Z,4.47
2022-09-15T21:24:29.221Z,4.27
2022-09-15T21:27:14.587Z,3.83
2022-09-15T21:29:42.476Z,4.47
2022-09-15T21:32:10.552Z,4.40
2022-09-15T21:34:38.743Z,4.10
2022-09-15T21:37:06.748Z,4.60
2022-09-15T21:39:36.037Z,5.60
2022-09-15T21:42:05.389Z,4.80
2022-09-15T21:44:33.678Z,5.00
2022-09-15T21:47:01.599Z,4.97
2022-09-15T21:49:29.502Z,5.10
2022-09-15T21:51:57.456Z,5.57
2022-09-15T21:54:25.901Z,4.27
2022-09-15T21:56:55.443Z,5.40
2022-09-15T21:59:23.364Z,5.80
2022-09-15T22:01:51.633Z,5.20
2022-09-15T22:04:19.637Z,5.50
2022-09-15T22:06:50.144Z,5.10
2022-09-15T22:09:21.279Z,5.37
2022-09-15T22:11:50.129Z,5.00
2022-09-15T22:14:19.403Z,5.50
2022-09-15T22:16:47.417Z,5.40
2022-09-15T22:19:15.582Z,5.80
2022-09-15T22:21:43.490Z,5.70
2022-09-15T22:24:13.337Z,5.40
2022-09-15T22:26:42.539Z,6.10
2022-09-15T22:29:10.745Z,4.90
2022-09-15T22:31:40.945Z,5.27
2022-09-15T22:34:08.939Z,5.37
2022-09-15T22:36:36.880Z,4.97
2022-09-15T22:39:06.324Z,5.40
2022-09-15T22:41:36.262Z,5.20
2022-09-15T22:44:05.352Z,5.67
2022-09-15T22:46:33.756Z,5.50
2022-09-15T22:49:03.326Z,5.10
2022-09-15T22:51:31.343Z,5.07
2022-09-15T22:53:59.483Z,5.40
2022-09-15T22:56:27.731Z,5.60
2022-09-15T22:58:57.442Z,5.27
2022-09-15T23:01:28.010Z,5.80
2022-09-15T23:03:57.516Z,6.00
2022-09-15T23:06:28.749Z,6.50
2022-09-15T23:08:58.246Z,6.60
2022-09-15T23:11:27.513Z,6.03
2022-09-15T23:13:56.162Z,6.27
2022-09-15T23:16:25.570Z,6.57
2022-09-15T23:18:53.912Z,6.00
2022-09-15T23:21:22.095Z,7.10
2022-09-15T23:23:53.600Z,6.60
2022-09-15T23:26:23.874Z,6.87
2022-09-15T23:28:51.928Z,8.30
2022-09-15T23:31:20.616Z,5.50
2022-09-15T23:33:49.252Z,5.90
2022-09-15T23:36:19.557Z,8.03
2022-09-15T23:38:48.502Z,6.37
2022-09-15T23:41:18.691Z,10.07
2022-09-15T23:43:47.388Z,5.87
2022-09-15T23:46:15.644Z,5.63
2022-09-15T23:48:44.076Z,6.47
2022-09-15T23:51:12.065Z,6.40
2022-09-15T23:53:40.039Z,6.93
2022-09-15T23:56:08.129Z,7.53
2022-09-15T23:58:37.615Z,7.93
